aviador You're here:

LBBG Decoded Metar

BOURGAS in BULGARIA
Report Time2018-01-19 19:00:00
UTC Time2018-01-19 19:20:41
Flight Rules vfr VFR
Wind250° at 05 kt
W.Decomp.*RWY 22: 4.5 kt HW 2.2 kt RCW
W.Rank250° ranks 3
Current wind is below 250° avg. (6.9)
Visibility9999 m
Phenomena:N/A
Clouds:N/A
Expected CloudBase > 2,400 ft AGL from Temp-Dew spread
CeilingNone
Temp04°C (ISA -11)
Dew Point-2°C (65% RH)
AAT-0.1°C
QNH1013 hPa
Density Alt-1,145 ft
Elevation92 ft
Report Wrong Elevation
Raw Report
LBBG 191900Z 25005KT CAVOK 04/M02 Q1013 NOSIG=

Extra information for LBBG:More info

Metar Taf Metar & Taf Last 4 Metars F.Rules Stats Wind Profile Meteogram Temp Stats Airport Information Weather charts Add Link Nearby VenuesMetar ALERT Operation Metar Decoded Social comments